Time;durP1;ratioP1;P1;durP2;ratioP2;P2;SDS_P1;SDS_P2;PMS_P1;PMS_P2;Temp;Humidity;BMP_temperature;BMP_pressure;BME280_temperature;BME280_humidity;BME280_pressure;Samples;Min_cycle;Max_cycle;Signal;HPM_P1;HPM_P2
2020/12/27 00:02:21;;;;;;;64.75;10.00;;;-2.30;13.50;;;;;;5035272;28;20293;-69
2020/12/27 00:04:47;;;;;;;78.78;16.05;;;-2.30;12.10;;;;;;5035396;28;20213;-68
2020/12/27 00:07:14;;;;;;;73.82;15.02;;;-2.30;9.50;;;;;;5035699;28;20580;-69
2020/12/27 00:09:42;;;;;;;66.10;10.68;;;-2.50;28.40;;;;;;5035292;28;20297;-68
2020/12/27 00:12:09;;;;;;;68.50;10.45;;;-2.40;7.40;;;;;;5038237;28;20218;-68
2020/12/27 00:14:36;;;;;;;65.72;10.35;;;-2.40;7.20;;;;;;5034674;28;20262;-68
2020/12/27 00:17:03;;;;;;;69.13;10.43;;;-2.40;7.30;;;;;;5035583;28;20696;-68
2020/12/27 00:19:30;;;;;;;64.82;9.88;;;-2.40;7.10;;;;;;5037465;28;20211;-68
2020/12/27 00:21:56;;;;;;;69.10;9.68;;;-2.50;7.90;;;;;;5036443;28;20225;-68
2020/12/27 00:24:23;;;;;;;63.90;9.25;;;-2.50;9.10;;;;;;5034698;28;20287;-69
2020/12/27 00:26:49;;;;;;;66.68;10.45;;;-2.50;8.50;;;;;;5034088;28;20213;-69
2020/12/27 00:29:16;;;;;;;64.43;9.32;;;-2.50;8.50;;;;;;5034731;28;20213;-69
2020/12/27 00:31:42;;;;;;;68.00;11.45;;;-2.50;8.50;;;;;;5034427;28;20297;-69
2020/12/27 00:34:08;;;;;;;68.13;10.70;;;-2.50;9.10;;;;;;5035136;28;20311;-69
2020/12/27 00:36:35;;;;;;;67.22;10.20;;;-2.50;8.50;;;;;;5034951;28;20210;-68
2020/12/27 00:39:06;;;;;;;68.25;10.63;;;-2.50;8.40;;;;;;5035498;28;20562;-69
2020/12/27 00:41:33;;;;;;;65.72;10.38;;;-2.50;6.40;;;;;;5034676;28;20595;-69
2020/12/27 00:43:59;;;;;;;66.85;9.63;;;-2.50;8.70;;;;;;5036224;28;20301;-68
2020/12/27 00:46:26;;;;;;;64.63;9.38;;;-2.50;6.50;;;;;;5034500;28;20554;-68
2020/12/27 00:48:52;;;;;;;65.22;9.75;;;-2.50;6.70;;;;;;5034030;28;20280;-69
2020/12/27 00:51:20;;;;;;;64.40;10.10;;;-2.50;6.00;;;;;;5033651;28;20668;-69
2020/12/27 00:53:47;;;;;;;67.63;9.80;;;-2.50;8.60;;;;;;5033772;28;20226;-69
2020/12/27 00:56:14;;;;;;;64.97;10.10;;;-2.50;6.30;;;;;;5035215;28;20294;-68
2020/12/27 00:58:40;;;;;;;65.70;10.73;;;-2.50;6.40;;;;;;5032997;28;20731;-68
2020/12/27 01:01:07;;;;;;;70.25;11.50;;;-2.50;9.70;;;;;;5033190;28;20449;-68
2020/12/27 01:03:33;;;;;;;68.18;10.75;;;-2.50;6.90;;;;;;5035065;28;20226;-68
2020/12/27 01:06:00;;;;;;;65.38;9.35;;;-2.50;4.10;;;;;;5034478;28;20264;-68
2020/12/27 01:08:27;;;;;;;69.85;10.57;;;-2.50;5.10;;;;;;5034525;28;20695;-68
2020/12/27 01:10:54;;;;;;;64.60;9.88;;;-2.50;6.30;;;;;;5034155;28;20637;-68
2020/12/27 01:13:21;;;;;;;63.95;9.55;;;-2.50;6.10;;;;;;5034336;28;20592;-68
2020/12/27 01:15:48;;;;;;;66.03;9.45;;;-2.50;7.90;;;;;;5034502;28;20212;-68
2020/12/27 01:18:14;;;;;;;65.03;8.38;;;-2.50;5.30;;;;;;5034308;28;20206;-68
2020/12/27 01:20:40;;;;;;;64.63;9.27;;;-2.50;4.00;;;;;;5034169;28;20218;-68
2020/12/27 01:23:07;;;;;;;66.45;8.75;;;-2.50;8.30;;;;;;5033866;28;20227;-68
2020/12/27 01:25:33;;;;;;;64.93;8.15;;;-2.50;6.20;;;;;;5034476;28;20206;-68
2020/12/27 01:28:01;;;;;;;63.78;7.97;;;-2.50;4.40;;;;;;5034655;28;20206;-68
2020/12/27 01:30:27;;;;;;;62.15;8.05;;;-2.50;3.70;;;;;;5035339;28;20209;-68
2020/12/27 01:32:53;;;;;;;63.55;8.05;;;-2.60;3.70;;;;;;5035225;28;20230;-68
2020/12/27 01:35:20;;;;;;;63.97;7.95;;;-2.50;5.60;;;;;;5035184;28;20228;-68
2020/12/27 01:37:46;;;;;;;63.88;8.20;;;-2.50;5.00;;;;;;5034490;28;20213;-68
2020/12/27 01:40:13;;;;;;;63.85;8.50;;;-2.50;4.90;;;;;;5033208;28;20513;-68
2020/12/27 01:42:39;;;;;;;63.58;8.40;;;-2.50;2.70;;;;;;5033149;28;20333;-68
2020/12/27 01:45:07;;;;;;;63.20;8.63;;;-2.50;2.00;;;;;;5033382;28;20620;-68
2020/12/27 01:47:34;;;;;;;64.55;8.68;;;-2.50;1.10;;;;;;5032850;28;20214;-69
2020/12/27 01:50:01;;;;;;;62.72;8.23;;;-2.50;1.30;;;;;;5031779;28;20293;-69
2020/12/27 01:52:28;;;;;;;63.17;7.85;;;-2.50;1.00;;;;;;5033346;28;20206;-69
2020/12/27 01:54:54;;;;;;;63.13;8.70;;;-2.50;1.00;;;;;;5036205;28;20669;-68
2020/12/27 01:57:22;;;;;;;63.70;8.30;;;-2.50;6.40;;;;;;5033568;28;20210;-68
2020/12/27 01:59:51;;;;;;;66.63;10.23;;;-2.50;1.00;;;;;;5032750;28;20237;-69
2020/12/27 02:02:19;;;;;;;61.88;7.95;;;-2.50;1.00;;;;;;5032225;28;20712;-68
2020/12/27 02:04:46;;;;;;;66.22;9.32;;;-2.50;1.00;;;;;;5032958;28;20611;-68
2020/12/27 02:07:13;;;;;;;62.97;8.40;;;-2.50;1.00;;;;;;5029075;28;20213;-69
2020/12/27 02:09:40;;;;;;;66.97;9.02;;;-2.50;3.20;;;;;;5032473;28;20202;-68
2020/12/27 02:12:08;;;;;;;64.72;9.05;;;-2.50;1.00;;;;;;5033039;28;20210;-68
2020/12/27 02:14:35;;;;;;;64.18;8.60;;;-2.50;4.00;;;;;;5033312;28;20233;-68
2020/12/27 02:17:02;;;;;;;62.92;9.27;;;-2.50;1.00;;;;;;5033230;28;20217;-68
2020/12/27 02:19:30;;;;;;;63.55;8.30;;;-2.40;1.00;;;;;;5032913;28;20591;-68
2020/12/27 02:21:56;;;;;;;63.40;8.75;;;-2.50;2.60;;;;;;5032276;28;20229;-68
2020/12/27 02:24:24;;;;;;;63.42;9.15;;;-2.40;1.30;;;;;;5031976;28;20409;-68
2020/12/27 02:26:57;;;;;;;66.00;9.40;;;-2.40;3.10;;;;;;5032939;28;20232;-68
2020/12/27 02:29:24;;;;;;;62.47;8.73;;;-2.40;1.40;;;;;;5032475;28;20748;-68
2020/12/27 02:31:50;;;;;;;65.07;8.52;;;-2.40;1.00;;;;;;5032213;28;20203;-68
2020/12/27 02:34:16;;;;;;;66.25;8.93;;;-2.40;1.00;;;;;;5033023;28;20234;-68
2020/12/27 02:36:43;;;;;;;64.40;9.57;;;-2.30;1.00;;;;;;5032463;28;20213;-68
2020/12/27 02:39:10;;;;;;;62.15;8.90;;;-2.20;1.00;;;;;;5031862;28;20210;-68
2020/12/27 02:41:38;;;;;;;63.70;8.80;;;-2.20;1.00;;;;;;5032406;28;20260;-68
2020/12/27 02:44:04;;;;;;;62.63;7.82;;;-2.10;1.00;;;;;;5032170;28;20373;-68
2020/12/27 02:46:31;;;;;;;61.75;7.57;;;-2.10;1.00;;;;;;5032299;28;20573;-68
2020/12/27 02:48:58;;;;;;;65.03;8.25;;;-2.10;1.00;;;;;;5032470;28;20272;-68
2020/12/27 02:51:25;;;;;;;61.78;8.38;;;-2.10;1.00;;;;;;5031943;28;20213;-68
2020/12/27 02:53:53;;;;;;;63.22;7.80;;;-2.10;1.00;;;;;;5032423;28;20232;-68
2020/12/27 02:56:22;;;;;;;63.47;8.95;;;-2.10;1.00;;;;;;5032656;28;20268;-68
2020/12/27 02:58:49;;;;;;;62.10;7.95;;;-2.10;1.00;;;;;;5032566;28;20240;-68
2020/12/27 03:01:16;;;;;;;64.50;9.23;;;-2.10;1.00;;;;;;5031721;28;20225;-68
2020/12/27 03:03:43;;;;;;;69.57;9.43;;;-2.10;1.00;;;;;;5032338;28;20646;-68
2020/12/27 03:06:09;;;;;;;63.22;8.05;;;-2.20;1.00;;;;;;5032236;28;20210;-68
2020/12/27 03:08:36;;;;;;;64.35;9.57;;;-2.20;1.00;;;;;;5031850;28;20210;-68
2020/12/27 03:11:03;;;;;;;65.40;8.43;;;-2.20;1.00;;;;;;5031739;28;20622;-68
2020/12/27 03:13:31;;;;;;;64.55;9.02;;;-2.20;1.00;;;;;;5032613;28;20236;-68
2020/12/27 03:15:58;;;;;;;65.22;9.77;;;-2.20;1.00;;;;;;5032380;28;20737;-68
2020/12/27 03:18:26;;;;;;;64.47;7.88;;;-2.20;1.00;;;;;;5031971;28;20716;-68
2020/12/27 03:20:52;;;;;;;64.75;8.35;;;-2.20;1.00;;;;;;5031524;28;20230;-68
2020/12/27 03:23:18;;;;;;;65.28;8.20;;;-2.30;1.00;;;;;;5031909;28;20222;-68
2020/12/27 03:25:45;;;;;;;64.80;7.70;;;-2.30;1.00;;;;;;5032026;28;20220;-68
2020/12/27 03:28:12;;;;;;;65.88;7.70;;;-2.30;1.00;;;;;;5032832;28;20281;-68
2020/12/27 03:30:38;;;;;;;62.92;8.85;;;-2.30;1.00;;;;;;5032346;28;20206;-68
2020/12/27 03:33:06;;;;;;;63.80;8.02;;;-2.40;1.00;;;;;;5031988;28;20612;-68
2020/12/27 03:35:32;;;;;;;64.45;8.88;;;-2.40;1.00;;;;;;5031575;28;20202;-68
2020/12/27 03:37:58;;;;;;;63.10;8.65;;;-2.40;1.00;;;;;;5031816;28;20763;-68
2020/12/27 03:40:25;;;;;;;65.72;9.45;;;-2.40;1.00;;;;;;5031958;28;20226;-68
2020/12/27 03:42:51;;;;;;;74.43;9.70;;;-2.50;1.00;;;;;;5031102;28;20284;-68
2020/12/27 03:45:18;;;;;;;66.18;9.00;;;-2.50;1.00;;;;;;5031259;28;20297;-68
2020/12/27 03:47:44;;;;;;;65.47;9.05;;;-2.50;1.00;;;;;;5031275;28;20218;-68
2020/12/27 03:50:11;;;;;;;64.72;9.18;;;-2.50;1.00;;;;;;5031184;28;20213;-68
2020/12/27 03:52:38;;;;;;;65.05;9.60;;;-2.60;1.00;;;;;;5035033;28;20227;-68
2020/12/27 03:55:04;;;;;;;65.90;9.10;;;-2.60;1.00;;;;;;5036532;28;20313;-68
2020/12/27 03:57:30;;;;;;;65.10;9.88;;;-2.60;1.00;;;;;;5035850;28;20203;-68
2020/12/27 03:59:57;;;;;;;66.40;9.40;;;-2.60;1.00;;;;;;5031759;28;20206;-68
2020/12/27 04:02:23;;;;;;;63.13;8.93;;;-2.60;1.00;;;;;;5031341;28;20360;-68
2020/12/27 04:04:49;;;;;;;65.25;9.32;;;-2.60;1.00;;;;;;5030911;28;20206;-68
2020/12/27 04:07:16;;;;;;;63.67;8.15;;;-2.60;1.00;;;;;;5030536;28;20202;-68
2020/12/27 04:09:43;;;;;;;63.25;8.32;;;-2.60;1.00;;;;;;5031460;28;20208;-68
2020/12/27 04:12:13;;;;;;;62.72;7.07;;;-2.60;1.00;;;;;;5032102;28;20199;-68
2020/12/27 04:14:39;;;;;;;62.72;8.55;;;-2.70;1.00;;;;;;5034822;28;20236;-68
2020/12/27 04:17:06;;;;;;;64.10;7.65;;;-2.70;1.00;;;;;;5035065;28;20217;-68
2020/12/27 04:19:32;;;;;;;62.08;8.45;;;-2.70;1.00;;;;;;5034826;28;20206;-68
2020/12/27 04:21:58;;;;;;;62.58;7.45;;;-2.70;1.00;;;;;;5034172;28;20230;-68
2020/12/27 04:24:26;;;;;;;62.30;7.57;;;-2.70;1.00;;;;;;5034468;28;20238;-68
2020/12/27 04:26:52;;;;;;;62.40;7.85;;;-2.70;1.00;;;;;;5034724;28;20263;-68
2020/12/27 04:29:18;;;;;;;64.38;9.30;;;-2.80;1.00;;;;;;5034571;28;20678;-68
2020/12/27 04:31:45;;;;;;;63.55;9.05;;;-2.80;1.00;;;;;;5034315;28;20206;-68
2020/12/27 04:34:11;;;;;;;61.05;7.55;;;-2.80;1.00;;;;;;5034254;28;20245;-68
2020/12/27 04:36:38;;;;;;;70.22;9.85;;;-2.80;1.00;;;;;;5033856;28;20245;-68
2020/12/27 04:39:04;;;;;;;66.32;8.75;;;-2.80;1.00;;;;;;5034514;28;20241;-68
2020/12/27 04:41:31;;;;;;;63.45;8.32;;;-2.80;1.00;;;;;;5034211;28;20222;-68
2020/12/27 04:43:58;;;;;;;62.75;8.45;;;-2.80;1.00;;;;;;5033906;28;20242;-68
2020/12/27 04:46:25;;;;;;;67.65;10.20;;;-2.80;1.00;;;;;;5033980;28;20214;-68
2020/12/27 04:48:53;;;;;;;66.65;10.50;;;-2.80;1.00;;;;;;5033957;28;20210;-68
2020/12/27 04:51:21;;;;;;;69.05;11.48;;;-2.80;1.00;;;;;;5033544;28;20301;-68
2020/12/27 04:53:49;;;;;;;63.67;8.57;;;-2.80;1.00;;;;;;5033477;28;20280;-68
2020/12/27 04:56:19;;;;;;;68.53;10.60;;;-2.80;1.00;;;;;;5033815;28;20217;-68
2020/12/27 04:58:47;;;;;;;70.57;12.65;;;-2.80;1.00;;;;;;5033935;28;20566;-68
2020/12/27 05:01:13;;;;;;;64.03;9.13;;;-2.80;1.00;;;;;;5033387;28;20232;-68
2020/12/27 05:03:39;;;;;;;66.25;9.55;;;-2.70;1.00;;;;;;5033156;28;20231;-68
2020/12/27 05:06:13;;;;;;;64.50;9.55;;;-2.70;1.00;;;;;;5033318;28;20210;-68
2020/12/27 05:08:39;;;;;;;67.18;9.50;;;-2.60;1.00;;;;;;5033437;28;20232;-68
2020/12/27 05:11:06;;;;;;;64.75;9.07;;;-2.60;1.00;;;;;;5033532;28;20198;-68
2020/12/27 05:13:32;;;;;;;67.57;10.23;;;-2.50;1.00;;;;;;5033372;28;20313;-68
2020/12/27 05:16:03;;;;;;;64.95;9.68;;;-2.50;1.00;;;;;;5033695;28;20210;-68
2020/12/27 05:18:31;;;;;;;80.30;14.05;;;-2.40;1.00;;;;;;5033810;28;20214;-68
2020/12/27 05:20:58;;;;;;;66.97;8.95;;;-2.50;1.00;;;;;;5033360;28;20268;-68
2020/12/27 05:23:26;;;;;;;65.80;9.85;;;-2.40;1.00;;;;;;5033241;28;20234;-68
2020/12/27 05:25:52;;;;;;;63.05;8.93;;;-2.40;1.00;;;;;;5032647;28;20464;-68
2020/12/27 05:28:19;;;;;;;62.78;9.35;;;-2.40;1.00;;;;;;5032518;28;20696;-68
2020/12/27 05:30:46;;;;;;;64.60;9.38;;;-2.30;1.00;;;;;;5032843;28;20234;-68
2020/12/27 05:33:15;;;;;;;63.90;8.68;;;-2.40;1.00;;;;;;5032879;28;20226;-68
2020/12/27 05:35:42;;;;;;;64.65;9.10;;;-2.40;1.00;;;;;;5032130;28;20206;-68
2020/12/27 05:38:10;;;;;;;64.68;9.32;;;-2.40;1.00;;;;;;5032719;28;20211;-68
2020/12/27 05:40:38;;;;;;;66.10;9.38;;;-2.40;1.00;;;;;;5032657;28;20226;-68
2020/12/27 05:43:14;;;;;;;64.82;8.38;;;-2.50;1.00;;;;;;5031804;28;20681;-68
2020/12/27 05:45:41;;;;;;;65.10;9.43;;;-2.50;1.00;;;;;;5069207;22;20233;-68
2020/12/27 05:48:07;;;;;;;62.05;7.80;;;-2.50;1.00;;;;;;5050632;28;20293;-68
2020/12/27 05:50:38;;;;;;;63.42;9.50;;;-2.50;1.00;;;;;;5051850;28;20304;-69
2020/12/27 05:53:16;;;;;;;64.20;8.48;;;-2.50;1.00;;;;;;5052059;28;20209;-69
2020/12/27 05:55:45;;;;;;;64.18;9.13;;;-2.50;1.00;;;;;;5052157;28;20229;-68
2020/12/27 05:58:18;;;;;;;65.40;9.50;;;-2.50;1.00;;;;;;5052537;28;20229;-69
2020/12/27 06:00:49;;;;;;;62.97;8.90;;;-2.50;1.00;;;;;;5052249;28;20226;-69
2020/12/27 06:03:24;;;;;;;67.20;8.73;;;-2.40;1.00;;;;;;5051697;28;20266;-69
2020/12/27 06:06:34;;;;;;;63.22;9.05;;;-2.40;1.00;;;;;;5051125;28;20785;-69
2020/12/27 06:09:08;;;;;;;65.97;9.98;;;-2.40;1.00;;;;;;5051974;28;20699;-68
2020/12/27 06:11:45;;;;;;;66.47;9.10;;;-2.30;1.00;;;;;;5051970;28;20285;-69
2020/12/27 06:14:42;;;;;;;63.47;9.43;;;-2.30;1.00;;;;;;5051905;28;20275;-69
2020/12/27 06:17:14;;;;;;;63.40;9.10;;;-2.30;1.00;;;;;;5028536;28;20213;-69
2020/12/27 06:19:55;;;;;;;62.95;8.95;;;-2.20;1.00;;;;;;5051815;28;20292;-70
2020/12/27 06:22:31;;;;;;;63.03;8.90;;;-2.20;1.00;;;;;;5050803;28;20225;-68
2020/12/27 06:24:59;;;;;;;62.38;8.88;;;-2.20;1.00;;;;;;5051902;28;20267;-69
2020/12/27 06:27:27;;;;;;;63.60;9.35;;;-2.10;1.00;;;;;;5051884;28;20288;-69
2020/12/27 06:29:59;;;;;;;64.38;10.05;;;-2.10;1.00;;;;;;5051708;28;20267;-69
2020/12/27 06:32:31;;;;;;;63.33;8.82;;;-2.10;1.00;;;;;;5051520;28;20255;-69
2020/12/27 06:35:01;;;;;;;64.13;9.50;;;-2.10;1.00;;;;;;5051123;28;20233;-69
2020/12/27 06:37:42;;;;;;;65.07;9.68;;;-2.00;1.00;;;;;;5051265;28;20216;-69
2020/12/27 06:40:09;;;;;;;64.88;8.85;;;-2.10;1.00;;;;;;5051553;28;20209;-69
2020/12/27 06:42:36;;;;;;;64.45;9.18;;;-2.10;1.00;;;;;;5051264;28;20256;-69
2020/12/27 06:45:03;;;;;;;63.85;8.65;;;-2.10;1.00;;;;;;5051001;28;20241;-69
2020/12/27 06:47:49;;;;;;;61.97;8.75;;;-2.10;1.00;;;;;;5050963;28;20812;-69
2020/12/27 06:50:17;;;;;;;67.28;9.48;;;-2.20;1.00;;;;;;5051150;28;20255;-68
2020/12/27 06:52:44;;;;;;;66.70;8.77;;;-2.20;1.00;;;;;;5050409;28;20237;-69
2020/12/27 06:55:11;;;;;;;67.68;9.50;;;-2.20;1.00;;;;;;5050913;28;20235;-69
2020/12/27 06:57:43;;;;;;;64.55;9.60;;;-2.30;1.00;;;;;;5051161;28;20699;-68
2020/12/27 07:00:24;;;;;;;65.65;10.07;;;-2.30;1.00;;;;;;5050889;28;20267;-69
2020/12/27 07:03:05;;;;;;;65.40;8.55;;;-2.30;1.00;;;;;;5050926;28;20250;-69
2020/12/27 07:05:34;;;;;;;62.05;8.80;;;-2.30;1.00;;;;;;5051125;28;20225;-69
2020/12/27 07:08:03;;;;;;;62.80;9.13;;;-2.30;1.00;;;;;;5050573;28;20668;-69
2020/12/27 07:10:31;;;;;;;61.28;8.75;;;-2.30;1.00;;;;;;5051068;28;20212;-69
2020/12/27 07:13:05;;;;;;;63.38;7.97;;;-2.20;1.00;;;;;;5050964;28;20213;-69
2020/12/27 07:15:32;;;;;;;62.72;9.18;;;-2.20;1.00;;;;;;5051272;28;20234;-69
2020/12/27 07:18:06;;;;;;;64.55;9.55;;;-2.20;1.00;;;;;;5051012;28;20332;-69
2020/12/27 07:20:33;;;;;;;61.83;8.90;;;-2.20;1.00;;;;;;5050928;28;20264;-69
2020/12/27 07:22:59;;;;;;;63.80;8.90;;;-2.20;1.00;;;;;;5050619;28;20207;-69
2020/12/27 07:25:30;;;;;;;65.50;8.93;;;-2.20;1.00;;;;;;5051202;28;20598;-69
2020/12/27 07:27:58;;;;;;;63.78;9.73;;;-2.10;1.00;;;;;;5051159;28;20206;-69
2020/12/27 07:30:27;;;;;;;62.88;8.05;;;-2.10;1.00;;;;;;5050843;28;20209;-69
2020/12/27 07:32:53;;;;;;;63.38;9.20;;;-2.10;1.00;;;;;;5050917;28;20215;-68
2020/12/27 07:35:23;;;;;;;62.22;8.70;;;-2.00;1.00;;;;;;5050942;28;20257;-68
2020/12/27 07:38:00;;;;;;;64.30;8.38;;;-2.00;1.00;;;;;;5050161;28;20206;-69
2020/12/27 07:40:32;;;;;;;64.47;8.88;;;-1.90;1.00;;;;;;5051163;28;20587;-69
2020/12/27 07:42:59;;;;;;;62.47;8.40;;;-1.80;1.00;;;;;;5050850;28;20205;-69
2020/12/27 07:45:25;;;;;;;66.05;8.93;;;-1.80;1.00;;;;;;5050740;28;20265;-69
2020/12/27 07:47:52;;;;;;;63.85;9.00;;;-1.70;1.00;;;;;;5054862;28;20213;-69
2020/12/27 07:50:20;;;;;;;66.43;10.23;;;-1.70;1.00;;;;;;5054507;28;20201;-69
2020/12/27 07:52:49;;;;;;;63.30;10.18;;;-1.70;1.00;;;;;;5054074;28;20201;-69
2020/12/27 07:55:37;;;;;;;62.35;8.70;;;-1.80;1.00;;;;;;5060802;28;20221;-72
2020/12/27 07:58:05;;;;;;;63.45;8.57;;;-1.70;1.00;;;;;;5047753;28;20218;-67
2020/12/27 08:00:32;;;;;;;63.13;8.30;;;-1.70;1.00;;;;;;5054115;28;20700;-67
2020/12/27 08:03:03;;;;;;;62.92;8.80;;;-1.70;1.00;;;;;;5053922;28;20210;-67
2020/12/27 08:05:29;;;;;;;62.47;9.13;;;-1.60;1.00;;;;;;5054328;28;20230;-67
2020/12/27 08:08:03;;;;;;;64.63;9.80;;;-1.60;1.00;;;;;;5054236;28;20618;-67
2020/12/27 08:10:29;;;;;;;63.00;9.25;;;-1.50;1.00;;;;;;5054448;28;20695;-67
2020/12/27 08:12:58;;;;;;;65.93;10.82;;;-1.50;1.00;;;;;;5053826;28;20205;-67
2020/12/27 08:15:26;;;;;;;61.90;8.77;;;-1.50;1.00;;;;;;5054556;28;20596;-67
2020/12/27 08:17:58;;;;;;;64.20;9.43;;;-1.40;1.00;;;;;;5054380;28;20210;-68
2020/12/27 08:20:25;;;;;;;62.40;8.68;;;-1.30;1.00;;;;;;5054186;28;20206;-67
2020/12/27 08:22:58;;;;;;;64.28;8.70;;;-1.30;1.00;;;;;;5053986;28;20230;-68
2020/12/27 08:25:25;;;;;;;64.47;8.88;;;-1.30;1.00;;;;;;5054238;28;20222;-67
2020/12/27 08:27:56;;;;;;;63.50;8.98;;;-1.20;1.00;;;;;;5053500;28;20669;-67
2020/12/27 08:30:24;;;;;;;63.72;9.30;;;-1.10;1.00;;;;;;5053684;28;20210;-68
2020/12/27 08:33:06;;;;;;;63.20;8.77;;;-1.10;1.00;;;;;;5053578;28;20206;-68
2020/12/27 08:35:32;;;;;;;62.42;7.60;;;-1.10;1.00;;;;;;5053959;28;20253;-67
2020/12/27 08:38:12;;;;;;;62.63;8.68;;;-1.00;1.00;;;;;;5053898;28;20205;-67
2020/12/27 08:40:43;;;;;;;64.03;8.50;;;-0.90;1.00;;;;;;5053682;28;20240;-68
2020/12/27 08:43:20;;;;;;;62.63;9.45;;;-0.90;1.00;;;;;;5053785;28;20584;-68
2020/12/27 08:45:56;;;;;;;64.20;10.50;;;-0.90;1.00;;;;;;5053697;28;20241;-67
2020/12/27 08:48:29;;;;;;;63.47;8.80;;;-0.80;1.00;;;;;;5053905;28;20229;-68
2020/12/27 08:50:57;;;;;;;65.97;9.20;;;-0.80;1.00;;;;;;5053821;28;20205;-68
2020/12/27 08:53:24;;;;;;;72.32;13.88;;;-0.70;1.00;;;;;;5053539;28;20213;-68
2020/12/27 08:55:50;;;;;;;64.35;9.98;;;-0.70;1.00;;;;;;5053498;28;20257;-68
2020/12/27 08:58:17;;;;;;;63.70;8.82;;;-0.70;1.00;;;;;;5053083;28;20217;-68
2020/12/27 09:00:47;;;;;;;63.88;9.07;;;-0.60;1.00;;;;;;5053465;28;20283;-68
2020/12/27 09:03:14;;;;;;;60.72;8.25;;;-0.60;1.00;;;;;;5052932;28;20210;-68
2020/12/27 09:05:40;;;;;;;63.90;8.85;;;-0.50;1.00;;;;;;5053533;28;20225;-68
2020/12/27 09:08:14;;;;;;;62.00;8.02;;;-0.40;1.00;;;;;;5053183;28;20241;-68
2020/12/27 09:10:41;;;;;;;62.45;8.02;;;-0.30;1.00;;;;;;5053515;28;20210;-68
2020/12/27 09:13:09;;;;;;;61.67;7.45;;;-0.30;1.00;;;;;;5052997;28;20508;-68
2020/12/27 09:15:38;;;;;;;65.15;7.68;;;-0.20;1.00;;;;;;5052968;28;20232;-68
2020/12/27 09:18:06;;;;;;;63.45;8.27;;;-0.10;1.00;;;;;;5053395;28;20554;-68
2020/12/27 09:20:35;;;;;;;60.13;7.03;;;-0.10;1.00;;;;;;5053301;28;20252;-68
2020/12/27 09:23:10;;;;;;;61.97;8.25;;;0.00;1.00;;;;;;5052939;28;20314;-68
2020/12/27 09:25:37;;;;;;;62.42;7.55;;;0.00;1.00;;;;;;5053015;28;20231;-68
2020/12/27 09:28:12;;;;;;;61.92;8.52;;;0.10;1.00;;;;;;5052658;28;20254;-68
2020/12/27 09:30:42;;;;;;;63.13;8.20;;;0.10;1.00;;;;;;5053199;28;20209;-68
2020/12/27 09:33:08;;;;;;;61.40;7.47;;;0.20;1.00;;;;;;5052842;28;20202;-68
2020/12/27 09:35:35;;;;;;;61.50;8.35;;;0.20;1.00;;;;;;5052841;28;20236;-68
2020/12/27 09:38:01;;;;;;;63.80;9.18;;;0.30;1.00;;;;;;5052953;28;20221;-68
2020/12/27 09:40:28;;;;;;;61.95;8.27;;;0.40;1.00;;;;;;5051879;28;20205;-67
2020/12/27 09:43:03;;;;;;;60.85;6.78;;;0.50;1.00;;;;;;5052342;28;20230;-67
2020/12/27 09:45:30;;;;;;;62.92;8.63;;;0.70;1.00;;;;;;5052528;28;20320;-68
2020/12/27 09:47:59;;;;;;;60.95;7.53;;;0.80;1.00;;;;;;5052368;28;20206;-68
2020/12/27 09:50:28;;;;;;;59.60;6.90;;;0.90;1.00;;;;;;5052387;28;20300;-68
2020/12/27 09:52:54;;;;;;;60.78;6.95;;;1.00;1.00;;;;;;5052119;28;20205;-68
2020/12/27 09:55:21;;;;;;;62.28;7.05;;;1.10;1.00;;;;;;5052039;28;20679;-68
2020/12/27 09:57:47;;;;;;;59.58;6.20;;;1.20;1.00;;;;;;5052810;28;20233;-68
2020/12/27 10:00:14;;;;;;;61.13;6.38;;;1.30;1.00;;;;;;5052324;28;20637;-68
2020/12/27 10:02:40;;;;;;;60.45;6.15;;;1.40;1.00;;;;;;5052101;28;20226;-68
2020/12/27 10:05:08;;;;;;;62.88;7.57;;;1.40;1.00;;;;;;5052375;28;20225;-68
2020/12/27 10:07:34;;;;;;;64.45;7.15;;;1.50;1.00;;;;;;5052151;28;20278;-68
2020/12/27 10:10:01;;;;;;;62.42;7.25;;;1.60;1.00;;;;;;5051367;28;20308;-67
2020/12/27 10:12:27;;;;;;;59.67;6.75;;;1.60;1.00;;;;;;5051976;28;20260;-68
2020/12/27 10:14:53;;;;;;;60.45;6.40;;;1.70;1.00;;;;;;5052053;28;20286;-68
2020/12/27 10:17:20;;;;;;;60.22;6.15;;;1.70;1.00;;;;;;5052403;28;20201;-68
2020/12/27 10:19:46;;;;;;;60.90;7.28;;;1.70;1.00;;;;;;5051873;28;20296;-68
2020/12/27 10:22:13;;;;;;;61.15;6.65;;;1.70;1.00;;;;;;5051857;28;20236;-68
2020/12/27 10:24:40;;;;;;;60.47;7.05;;;1.70;1.00;;;;;;5051613;28;20279;-68
2020/12/27 10:27:07;;;;;;;62.33;7.55;;;1.70;1.00;;;;;;5051918;28;20205;-68
2020/12/27 10:29:34;;;;;;;62.10;7.13;;;1.70;1.00;;;;;;5051899;28;20242;-68
2020/12/27 10:32:02;;;;;;;61.13;7.03;;;1.70;1.00;;;;;;5051508;28;20213;-67
2020/12/27 10:34:29;;;;;;;62.80;6.20;;;1.70;1.00;;;;;;5051670;28;20317;-68
2020/12/27 10:36:57;;;;;;;58.58;6.15;;;1.60;1.00;;;;;;5051453;28;20209;-68
2020/12/27 10:39:25;;;;;;;62.47;7.70;;;1.50;1.00;;;;;;5051809;28;20297;-68
2020/12/27 10:41:52;;;;;;;62.58;8.13;;;1.40;1.00;;;;;;5051302;28;20314;-68
2020/12/27 10:44:21;;;;;;;61.55;7.13;;;1.40;1.00;;;;;;5051483;28;20669;-68
2020/12/27 10:46:49;;;;;;;61.97;8.40;;;1.50;1.00;;;;;;5051517;28;20249;-67
2020/12/27 10:49:16;;;;;;;61.30;6.95;;;1.50;1.00;;;;;;5051376;28;20343;-68
2020/12/27 10:51:43;;;;;;;58.65;5.95;;;1.60;1.00;;;;;;5051248;28;20695;-68
2020/12/27 10:54:11;;;;;;;61.67;7.18;;;1.60;1.00;;;;;;5051077;28;20296;-68
2020/12/27 10:56:39;;;;;;;61.17;6.93;;;1.60;1.00;;;;;;5051429;28;20620;-68
2020/12/27 10:59:06;;;;;;;59.70;6.57;;;1.70;1.00;;;;;;5051259;28;20201;-68
2020/12/27 11:01:32;;;;;;;61.40;6.20;;;1.70;1.00;;;;;;5051402;28;20225;-67
2020/12/27 11:03:59;;;;;;;60.42;7.00;;;1.70;1.00;;;;;;5050819;28;20216;-68
2020/12/27 11:06:29;;;;;;;61.00;6.80;;;1.70;1.00;;;;;;5051297;28;20233;-68
2020/12/27 11:08:55;;;;;;;61.55;7.30;;;1.70;1.00;;;;;;5051177;28;20209;-67
2020/12/27 11:11:22;;;;;;;60.33;6.63;;;1.80;1.00;;;;;;5050999;28;20204;-68
2020/12/27 11:13:49;;;;;;;61.83;7.28;;;1.80;1.00;;;;;;5050785;28;20213;-68
2020/12/27 11:16:15;;;;;;;61.35;6.60;;;1.90;1.00;;;;;;5051295;28;20291;-68
2020/12/27 11:18:42;;;;;;;63.72;6.07;;;1.90;1.00;;;;;;5051094;28;20210;-68
2020/12/27 11:21:08;;;;;;;64.95;7.53;;;1.90;1.00;;;;;;5052627;28;20656;-67
2020/12/27 11:23:35;;;;;;;61.97;6.70;;;1.90;1.00;;;;;;5055064;28;20828;-68
2020/12/27 11:26:01;;;;;;;61.00;6.22;;;1.90;1.00;;;;;;5055068;28;20233;-68
2020/12/27 11:28:27;;;;;;;62.78;7.00;;;2.00;1.00;;;;;;5055135;28;20205;-68
2020/12/27 11:30:54;;;;;;;60.95;6.25;;;2.00;1.00;;;;;;5054830;28;20305;-68
2020/12/27 11:33:21;;;;;;;60.47;6.50;;;2.00;1.00;;;;;;5055203;28;20216;-68
2020/12/27 11:35:48;;;;;;;60.97;7.82;;;2.00;1.00;;;;;;5052219;28;20610;-69
2020/12/27 11:38:14;;;;;;;60.53;6.50;;;2.00;1.00;;;;;;5049920;28;20209;-69
2020/12/27 11:40:40;;;;;;;62.78;7.68;;;2.10;1.00;;;;;;5049666;28;20220;-70
2020/12/27 11:43:07;;;;;;;60.20;6.10;;;2.10;1.00;;;;;;5049494;28;20490;-69
2020/12/27 11:45:33;;;;;;;63.83;7.43;;;2.10;1.00;;;;;;5050578;28;20308;-70
2020/12/27 11:48:00;;;;;;;61.70;7.20;;;2.10;1.00;;;;;;5054880;28;20399;-70
2020/12/27 11:50:26;;;;;;;61.40;6.88;;;2.00;1.00;;;;;;5049067;22;20273;-68
2020/12/27 11:52:53;;;;;;;65.47;7.75;;;2.10;1.00;;;;;;5014548;28;20207;-68
2020/12/27 11:55:19;;;;;;;59.50;6.35;;;2.10;1.00;;;;;;5015059;28;20211;-68
2020/12/27 11:57:45;;;;;;;65.38;7.30;;;2.10;1.00;;;;;;5014768;28;20218;-68
2020/12/27 12:00:13;;;;;;;61.15;6.53;;;2.10;1.00;;;;;;5015083;28;20234;-68
2020/12/27 12:02:41;;;;;;;61.85;8.10;;;2.10;1.00;;;;;;5014495;28;20262;-68
2020/12/27 12:05:08;;;;;;;60.65;6.70;;;2.20;1.00;;;;;;5014974;28;20244;-68
2020/12/27 12:07:34;;;;;;;59.95;6.38;;;2.30;1.00;;;;;;5015944;28;20207;-68
2020/12/27 12:10:00;;;;;;;61.47;6.85;;;2.30;1.00;;;;;;5017524;28;20231;-68
2020/12/27 12:12:27;;;;;;;62.75;6.88;;;2.30;1.00;;;;;;5014430;28;20677;-68
2020/12/27 12:14:54;;;;;;;61.10;6.80;;;2.40;1.00;;;;;;5014044;28;20692;-68
2020/12/27 12:17:20;;;;;;;60.92;7.22;;;2.40;1.00;;;;;;5014465;28;20218;-68
2020/12/27 12:19:48;;;;;;;60.53;6.57;;;2.40;1.00;;;;;;5014447;28;20227;-68
2020/12/27 12:22:15;;;;;;;62.03;6.93;;;2.40;1.00;;;;;;5014550;28;20274;-68
2020/12/27 12:24:41;;;;;;;58.80;6.10;;;2.50;1.00;;;;;;5014447;28;20246;-68
2020/12/27 12:27:07;;;;;;;62.22;7.05;;;2.50;1.00;;;;;;5014419;28;20207;-68
2020/12/27 12:29:34;;;;;;;59.17;5.75;;;2.50;1.00;;;;;;5013999;28;20597;-68
2020/12/27 12:32:00;;;;;;;61.70;7.35;;;2.50;1.00;;;;;;5014005;28;20207;-68
2020/12/27 12:34:27;;;;;;;60.83;7.28;;;2.60;1.00;;;;;;5013704;28;20203;-68
2020/12/27 12:36:53;;;;;;;60.22;6.88;;;2.60;1.00;;;;;;5014172;28;20748;-68
2020/12/27 12:39:20;;;;;;;61.25;6.72;;;2.60;1.00;;;;;;5014066;28;20222;-68
2020/12/27 12:41:46;;;;;;;62.35;7.75;;;2.60;1.00;;;;;;5013839;28;20223;-68
2020/12/27 12:44:13;;;;;;;61.22;7.18;;;2.60;1.00;;;;;;5013687;28;20207;-68
2020/12/27 12:46:39;;;;;;;66.93;7.22;;;2.70;1.00;;;;;;5014085;28;20203;-68
2020/12/27 12:49:06;;;;;;;63.85;6.70;;;2.70;1.00;;;;;;5013643;28;20321;-68
2020/12/27 12:51:32;;;;;;;60.58;6.72;;;2.70;1.00;;;;;;5013997;28;20213;-68
2020/12/27 12:53:58;;;;;;;61.95;7.15;;;2.60;1.00;;;;;;5013678;28;20234;-68